Time;durP1;ratioP1;P1;durP2;ratioP2;P2;SDS_P1;SDS_P2;PMS_P1;PMS_P2;Temp;Humidity;BMP_temperature;BMP_pressure;BME280_temperature;BME280_humidity;BME280_pressure;Samples;Min_cycle;Max_cycle;Signal;HPM_P1;HPM_P2
2023/10/02 00:01:36;;;;;;;9.45;4.68;;;16.40;72.10;;;;;;6247214;28;20127;-75
2023/10/02 00:04:38;;;;;;;8.68;4.28;;;16.50;72.50;;;;;;6198403;28;20054;-75
2023/10/02 00:07:44;;;;;;;8.63;4.57;;;16.40;71.10;;;;;;6210893;28;20066;-76
2023/10/02 00:10:46;;;;;;;10.70;4.93;;;16.40;71.40;;;;;;6198579;28;20054;-75
2023/10/02 00:14:18;;;;;;;9.40;4.63;;;16.30;71.60;;;;;;6226650;28;20050;-75
2023/10/02 00:17:14;;;;;;;9.30;4.32;;;16.30;71.60;;;;;;6207096;28;20132;-76
2023/10/02 00:20:22;;;;;;;11.20;4.80;;;16.30;72.10;;;;;;6220727;28;20060;-75
2023/10/02 00:23:25;;;;;;;12.40;4.82;;;16.30;73.10;;;;;;6198122;28;20054;-75
2023/10/02 00:26:26;;;;;;;10.32;4.10;;;16.40;72.80;;;;;;6237988;28;20047;-75
2023/10/02 00:29:28;;;;;;;10.32;4.65;;;16.40;73.10;;;;;;6230719;28;20085;-75
2023/10/02 00:32:31;;;;;;;7.80;3.83;;;16.40;73.50;;;;;;6245827;28;20058;-76
2023/10/02 00:35:50;;;;;;;10.30;4.53;;;16.40;73.70;;;;;;6222094;28;20069;-77
2023/10/02 00:38:52;;;;;;;8.60;4.50;;;16.50;73.70;;;;;;6205419;28;20090;-77
2023/10/02 00:45:14;;;;;;;9.27;4.47;;;16.50;72.50;;;;;;6244091;28;20140;-76
2023/10/02 00:48:33;;;;;;;12.32;4.43;;;16.60;71.80;;;;;;6201086;28;20050;-76
2023/10/02 00:51:35;;;;;;;9.73;4.47;;;16.60;72.40;;;;;;6230151;28;20058;-76
2023/10/02 00:54:38;;;;;;;9.63;4.05;;;16.60;72.70;;;;;;6226738;28;20054;-76
2023/10/02 00:57:41;;;;;;;7.82;3.90;;;16.60;71.90;;;;;;6239421;28;20056;-76
2023/10/02 01:00:47;;;;;;;8.05;4.00;;;16.70;71.30;;;;;;6244076;28;20057;-76
2023/10/02 01:04:09;;;;;;;10.85;4.40;;;16.70;71.60;;;;;;6197067;28;20058;-76
2023/10/02 01:07:15;;;;;;;9.98;4.07;;;16.70;70.50;;;;;;6211573;28;20489;-75
2023/10/02 01:10:20;;;;;;;7.82;3.70;;;16.60;69.90;;;;;;6245230;28;20076;-75
2023/10/02 01:13:24;;;;;;;8.48;4.50;;;16.60;70.90;;;;;;6225844;28;20050;-76
2023/10/02 01:16:27;;;;;;;8.95;3.92;;;16.50;70.50;;;;;;6221371;28;20073;-75
2023/10/02 01:19:52;;;;;;;7.78;4.40;;;16.50;70.90;;;;;;6207253;28;20053;-75
2023/10/02 01:22:55;;;;;;;10.75;3.90;;;16.50;71.60;;;;;;6196471;28;20050;-75
2023/10/02 01:25:57;;;;;;;9.52;4.20;;;16.40;72.90;;;;;;6197122;28;20058;-76
2023/10/02 01:29:01;;;;;;;12.07;4.80;;;16.40;73.00;;;;;;6223273;28;20496;-76
2023/10/02 01:32:04;;;;;;;8.98;4.20;;;16.40;73.90;;;;;;6244616;28;20088;-76
2023/10/02 01:35:05;;;;;;;10.38;4.68;;;16.40;73.90;;;;;;6220817;28;20065;-76
2023/10/02 01:38:12;;;;;;;11.05;3.95;;;16.40;74.40;;;;;;6219808;28;20519;-76
2023/10/02 01:41:14;;;;;;;11.00;4.50;;;16.30;73.90;;;;;;6196342;28;20441;-76
2023/10/02 01:44:20;;;;;;;8.38;3.92;;;16.30;73.80;;;;;;6242081;28;20143;-77
2023/10/02 01:47:22;;;;;;;11.18;4.45;;;16.30;74.20;;;;;;6213245;28;20080;-77
2023/10/02 01:50:24;;;;;;;10.63;4.22;;;16.20;75.10;;;;;;6238282;28;20073;-76
2023/10/02 01:53:29;;;;;;;8.55;4.00;;;16.30;74.40;;;;;;6220127;28;20060;-76
2023/10/02 01:56:30;;;;;;;8.98;4.20;;;16.20;75.00;;;;;;6244513;28;20050;-77
2023/10/02 01:59:32;;;;;;;9.98;4.30;;;16.20;73.60;;;;;;6213670;28;20049;-74
2023/10/02 02:02:34;;;;;;;9.48;4.32;;;16.20;72.20;;;;;;6220356;28;20196;-75
2023/10/02 02:05:36;;;;;;;6.90;3.30;;;16.10;71.90;;;;;;6232742;28;20060;-76
2023/10/02 02:08:38;;;;;;;8.73;4.43;;;16.00;72.90;;;;;;6229782;28;20529;-75
2023/10/02 02:11:41;;;;;;;8.20;4.15;;;15.90;71.80;;;;;;6243784;28;20084;-75
2023/10/02 02:14:49;;;;;;;9.70;4.57;;;15.90;73.50;;;;;;6212111;28;20053;-74
2023/10/02 02:17:52;;;;;;;10.02;4.40;;;15.80;73.80;;;;;;6195725;28;20054;-74
2023/10/02 02:20:58;;;;;;;10.95;4.63;;;15.70;74.60;;;;;;6243183;28;20057;-75
2023/10/02 02:24:03;;;;;;;8.13;3.78;;;15.70;74.90;;;;;;6218551;28;20470;-74
2023/10/02 02:27:06;;;;;;;9.75;4.15;;;15.70;74.50;;;;;;6243783;28;20061;-74
2023/10/02 02:30:10;;;;;;;7.90;4.32;;;15.60;75.10;;;;;;6213172;28;20061;-74
2023/10/02 02:33:12;;;;;;;8.75;4.35;;;15.70;75.00;;;;;;6243673;28;20058;-74
2023/10/02 02:36:14;;;;;;;11.10;5.10;;;15.70;74.50;;;;;;6219819;28;20766;-74
2023/10/02 02:39:16;;;;;;;8.65;4.05;;;15.80;75.90;;;;;;6243082;28;20526;-75
2023/10/02 02:42:22;;;;;;;8.57;4.60;;;15.90;76.40;;;;;;6218918;28;20054;-74
2023/10/02 02:45:31;;;;;;;8.60;4.40;;;15.90;75.90;;;;;;6240637;28;20064;-76
2023/10/02 02:48:44;;;;;;;9.57;4.50;;;16.00;75.60;;;;;;6195111;28;20054;-75
2023/10/02 02:51:48;;;;;;;8.27;4.35;;;16.10;76.40;;;;;;6213821;28;20137;-76
2023/10/02 02:55:32;;;;;;;12.00;4.97;;;16.20;75.60;;;;;;6218483;28;20596;-76
2023/10/02 02:58:14;;;;;;;10.35;4.95;;;16.30;75.30;;;;;;6203842;28;20057;-76
2023/10/02 03:01:21;;;;;;;11.30;5.38;;;16.40;75.60;;;;;;6243637;28;20064;-75
2023/10/02 03:04:25;;;;;;;11.85;5.65;;;16.40;74.60;;;;;;6197884;28;20132;-77
2023/10/02 03:07:36;;;;;;;9.13;5.35;;;16.50;74.40;;;;;;6199775;28;20069;-76
2023/10/02 03:10:39;;;;;;;11.63;5.87;;;16.50;74.70;;;;;;6199553;28;20061;-76
2023/10/02 03:13:41;;;;;;;11.32;5.20;;;16.60;73.80;;;;;;6235083;28;20674;-75
2023/10/02 03:16:45;;;;;;;11.48;5.35;;;16.70;74.00;;;;;;6247985;28;20045;-76
2023/10/02 03:19:47;;;;;;;12.38;6.20;;;16.70;73.10;;;;;;6213095;28;20050;-77
2023/10/02 03:22:52;;;;;;;14.02;5.93;;;16.70;72.90;;;;;;6245864;28;20045;-76
2023/10/02 03:25:56;;;;;;;12.90;6.07;;;16.80;73.10;;;;;;6223735;28;20061;-76
2023/10/02 03:29:00;;;;;;;14.52;5.22;;;16.80;72.80;;;;;;6226712;28;20100;-76
2023/10/02 03:32:05;;;;;;;12.30;5.70;;;16.80;72.20;;;;;;6230514;28;20177;-75
2023/10/02 03:35:11;;;;;;;11.70;5.38;;;16.80;72.70;;;;;;6247622;28;20049;-74
2023/10/02 03:38:14;;;;;;;11.68;4.95;;;16.80;71.70;;;;;;6199239;28;20550;-75
2023/10/02 03:41:16;;;;;;;13.10;5.57;;;16.80;71.40;;;;;;6226584;28;20558;-75
2023/10/02 03:44:18;;;;;;;11.45;5.90;;;16.80;71.20;;;;;;6238093;23;20198;-79
2023/10/02 03:47:20;;;;;;;10.60;5.10;;;16.90;70.90;;;;;;6247759;28;20103;-79
2023/10/02 03:50:24;;;;;;;14.02;5.50;;;16.90;71.10;;;;;;6222513;28;20054;-78
2023/10/02 03:53:28;;;;;;;10.63;5.65;;;16.90;71.10;;;;;;6238244;28;20050;-79
2023/10/02 03:56:36;;;;;;;10.77;5.25;;;16.90;71.30;;;;;;6246541;28;20528;-79
2023/10/02 03:59:52;;;;;;;14.25;5.85;;;16.90;71.10;;;;;;6200770;28;20045;-79
2023/10/02 04:02:54;;;;;;;12.40;5.18;;;16.90;71.30;;;;;;6222485;28;20061;-78
2023/10/02 04:05:55;;;;;;;14.15;5.65;;;16.90;71.10;;;;;;6246401;28;20050;-79
2023/10/02 04:09:08;;;;;;;10.43;5.10;;;16.90;71.80;;;;;;6220986;28;20049;-79
2023/10/02 04:12:12;;;;;;;10.85;5.85;;;16.80;71.70;;;;;;6198148;28;20046;-79
2023/10/02 04:15:14;;;;;;;13.23;5.82;;;16.90;71.20;;;;;;6238431;28;20467;-79
2023/10/02 04:18:45;;;;;;;16.90;5.82;;;17.00;71.50;;;;;;6222943;28;20054;-80
2023/10/02 04:21:37;;;;;;;14.43;5.97;;;16.90;71.80;;;;;;6198452;28;20061;-78
2023/10/02 04:24:51;;;;;;;13.85;5.40;;;16.90;71.40;;;;;;6245790;28;20057;-79
2023/10/02 04:31:05;;;;;;;16.20;6.53;;;16.80;73.70;;;;;;6241169;28;20080;-78
2023/10/02 04:34:29;;;;;;;15.48;6.57;;;16.80;73.80;;;;;;6212954;28;20057;-78
2023/10/02 04:37:36;;;;;;;14.32;6.03;;;16.80;74.10;;;;;;6198019;28;20054;-78
2023/10/02 04:40:44;;;;;;;18.08;7.03;;;16.80;74.30;;;;;;6197413;28;20469;-78
2023/10/02 04:43:48;;;;;;;11.43;5.70;;;16.80;73.90;;;;;;6212499;28;20511;-78
2023/10/02 04:46:52;;;;;;;11.85;5.70;;;16.80;74.00;;;;;;6246536;28;20169;-77
2023/10/02 04:59:20;;;;;;;16.08;6.65;;;16.80;73.90;;;;;;6223387;28;20497;-79
2023/10/02 05:02:24;;;;;;;19.42;7.57;;;16.80;74.40;;;;;;6225673;28;20592;-78
2023/10/02 05:05:34;;;;;;;15.55;7.10;;;16.80;74.10;;;;;;6245637;28;20049;-79
2023/10/02 05:08:41;;;;;;;16.13;7.07;;;16.70;74.10;;;;;;6212467;28;20061;-78
2023/10/02 05:11:52;;;;;;;16.38;7.20;;;16.70;73.70;;;;;;6245149;28;20053;-78
2023/10/02 05:14:55;;;;;;;17.60;7.03;;;16.70;74.90;;;;;;6194890;28;20184;-78
2023/10/02 05:17:57;;;;;;;15.52;6.80;;;16.70;74.80;;;;;;6244708;28;20440;-78
2023/10/02 05:21:01;;;;;;;11.48;5.53;;;16.60;74.60;;;;;;6201503;28;20090;-78
2023/10/02 05:24:03;;;;;;;15.98;5.60;;;16.70;74.20;;;;;;6245227;28;20049;-78
2023/10/02 05:27:04;;;;;;;12.48;4.90;;;16.70;74.20;;;;;;6221107;28;20054;-78
2023/10/02 05:30:12;;;;;;;13.52;5.07;;;16.70;74.10;;;;;;6233991;28;20049;-78
2023/10/02 05:33:36;;;;;;;13.05;5.45;;;16.70;74.30;;;;;;6217750;28;20053;-79
2023/10/02 05:36:36;;;;;;;11.35;5.00;;;16.70;74.70;;;;;;6198024;28;20053;-78
2023/10/02 05:39:40;;;;;;;9.75;4.82;;;16.70;75.00;;;;;;6206312;28;20409;-79
2023/10/02 05:42:53;;;;;;;12.25;5.28;;;16.60;74.20;;;;;;6201733;28;20139;-74
2023/10/02 05:45:55;;;;;;;11.50;4.78;;;16.60;74.80;;;;;;6209784;28;20062;-79
2023/10/02 05:49:02;;;;;;;12.77;5.50;;;16.50;75.80;;;;;;6242674;28;20054;-77
2023/10/02 05:52:07;;;;;;;9.75;4.57;;;16.60;76.50;;;;;;6210237;28;20053;-77
2023/10/02 05:55:17;;;;;;;12.80;5.10;;;16.60;76.10;;;;;;6196449;28;20137;-79
2023/10/02 05:58:31;;;;;;;13.13;5.05;;;16.50;75.70;;;;;;6210648;28;20057;-79
2023/10/02 06:01:35;;;;;;;14.18;5.65;;;16.50;76.80;;;;;;6220384;28;20053;-80
2023/10/02 06:04:37;;;;;;;13.45;5.75;;;16.50;76.40;;;;;;6244822;28;20572;-79
2023/10/02 06:07:46;;;;;;;14.13;5.85;;;16.40;76.80;;;;;;6220483;28;20050;-79
2023/10/02 06:11:08;;;;;;;12.30;5.18;;;16.40;76.80;;;;;;6196262;28;20161;-79
2023/10/02 06:14:09;;;;;;;14.48;6.53;;;16.50;77.70;;;;;;6230230;28;20158;-79
2023/10/02 06:17:11;;;;;;;15.18;5.88;;;16.50;76.80;;;;;;6220312;28;20062;-79
2023/10/02 06:20:17;;;;;;;14.15;5.68;;;16.60;76.90;;;;;;6243637;28;20053;-79
2023/10/02 06:23:19;;;;;;;11.27;5.47;;;16.60;76.90;;;;;;6196529;28;20058;-79
2023/10/02 06:26:25;;;;;;;16.60;5.53;;;16.60;76.30;;;;;;6246013;28;20049;-80
2023/10/02 06:29:29;;;;;;;14.20;5.90;;;16.70;76.70;;;;;;6191785;28;20057;-79
2023/10/02 06:32:32;;;;;;;12.20;5.82;;;16.70;76.40;;;;;;6243740;28;20598;-80
2023/10/02 06:35:33;;;;;;;13.80;6.15;;;16.70;76.30;;;;;;6219773;28;20413;-79
2023/10/02 06:38:35;;;;;;;11.70;5.18;;;16.70;76.50;;;;;;6242709;28;20076;-80
2023/10/02 06:41:38;;;;;;;11.73;5.20;;;16.70;76.00;;;;;;6219865;28;20531;-80
2023/10/02 06:44:52;;;;;;;12.48;5.00;;;16.70;75.60;;;;;;6231379;28;20062;-80
2023/10/02 06:47:56;;;;;;;14.52;5.85;;;16.70;74.50;;;;;;6195355;28;20057;-80
2023/10/02 06:50:59;;;;;;;13.77;5.63;;;16.70;75.80;;;;;;6234475;28;20053;-77
2023/10/02 06:54:07;;;;;;;10.52;4.82;;;16.80;75.20;;;;;;6219584;28;20065;-78
2023/10/02 06:57:11;;;;;;;13.07;5.70;;;16.80;74.80;;;;;;6194937;28;20502;-78
2023/10/02 07:00:19;;;;;;;13.77;5.15;;;16.90;74.20;;;;;;6243148;28;20049;-77
2023/10/02 07:03:21;;;;;;;11.73;5.47;;;16.80;74.10;;;;;;6194693;28;20184;-77
2023/10/02 07:06:26;;;;;;;10.18;4.78;;;16.80;74.40;;;;;;6242467;28;20059;-78
2023/10/02 07:09:27;;;;;;;9.65;4.75;;;16.90;73.50;;;;;;6219392;28;20057;-80
2023/10/02 07:12:32;;;;;;;10.35;4.63;;;16.90;74.00;;;;;;6240812;28;20057;-79
2023/10/02 07:15:34;;;;;;;13.18;5.80;;;16.90;73.70;;;;;;6218608;28;20416;-77
2023/10/02 07:18:45;;;;;;;10.95;5.43;;;16.90;73.50;;;;;;6193849;28;20058;-77
2023/10/02 07:21:47;;;;;;;10.63;5.50;;;17.00;73.30;;;;;;6218815;28;20064;-79
2023/10/02 07:24:48;;;;;;;14.32;6.25;;;17.00;73.40;;;;;;6242549;28;20053;-77
2023/10/02 07:27:51;;;;;;;12.90;5.68;;;17.00;73.30;;;;;;6223251;28;20065;-77
2023/10/02 07:30:56;;;;;;;11.90;5.50;;;17.10;73.60;;;;;;6244027;28;20072;-79
2023/10/02 07:33:58;;;;;;;10.13;4.68;;;17.20;72.20;;;;;;6194295;28;20047;-78
2023/10/02 07:37:00;;;;;;;12.93;5.38;;;17.20;71.80;;;;;;6242257;28;20548;-79
2023/10/02 07:40:01;;;;;;;18.00;5.80;;;17.20;69.40;;;;;;6217947;28;20058;-76
2023/10/02 07:43:04;;;;;;;46.22;17.20;;;17.20;70.70;;;;;;6229877;28;20053;-74
2023/10/02 07:46:15;;;;;;;64.25;23.55;;;17.30;71.70;;;;;;6215516;28;20134;-81
2023/10/02 07:49:17;;;;;;;25.85;9.40;;;17.30;70.90;;;;;;6192920;28;20050;-80
2023/10/02 07:52:35;;;;;;;17.40;7.82;;;17.40;69.30;;;;;;6251490;28;20413;-81
2023/10/02 07:55:42;;;;;;;15.48;7.03;;;17.40;69.90;;;;;;6198647;28;20466;-81
2023/10/02 07:58:54;;;;;;;20.15;7.53;;;17.40;69.90;;;;;;6227104;28;20060;-78
2023/10/02 08:02:17;;;;;;;14.05;6.55;;;17.30;69.70;;;;;;6198098;28;20050;-75
2023/10/02 08:05:20;;;;;;;17.25;7.18;;;17.30;70.90;;;;;;6217047;28;20512;-76
2023/10/02 08:08:23;;;;;;;16.13;6.38;;;17.30;70.20;;;;;;6222428;28;20064;-75
2023/10/02 08:11:24;;;;;;;13.68;6.60;;;17.30;71.80;;;;;;6245948;28;20115;-77
2023/10/02 08:14:38;;;;;;;15.35;7.03;;;17.30;70.50;;;;;;6216900;28;20058;-76
2023/10/02 08:20:43;;;;;;;17.83;6.35;;;17.40;70.90;;;;;;6222416;28;20050;-73
2023/10/02 08:23:45;;;;;;;14.77;5.90;;;17.40;70.20;;;;;;6221977;28;20543;-75
2023/10/02 08:26:47;;;;;;;14.10;5.28;;;17.50;70.70;;;;;;6212189;28;20073;-76
2023/10/02 08:29:49;;;;;;;11.80;5.72;;;17.50;68.20;;;;;;6243932;28;20045;-75
2023/10/02 08:32:50;;;;;;;11.50;4.90;;;17.50;68.40;;;;;;6222348;28;20076;-74
2023/10/02 08:35:55;;;;;;;15.43;5.75;;;17.50;68.80;;;;;;6246005;28;20053;-77
2023/10/02 08:38:59;;;;;;;14.95;6.03;;;17.60;68.70;;;;;;6221883;28;20057;-75
2023/10/02 08:42:23;;;;;;;10.93;5.38;;;17.70;68.80;;;;;;6220528;28;20527;-75
2023/10/02 08:45:26;;;;;;;12.05;5.15;;;17.70;68.50;;;;;;6240995;28;20448;-76
2023/10/02 08:48:31;;;;;;;8.48;3.78;;;17.70;66.60;;;;;;6221624;28;20053;-75
2023/10/02 08:51:34;;;;;;;8.13;3.53;;;17.70;64.90;;;;;;6208259;28;20058;-75
2023/10/02 08:54:39;;;;;;;11.30;4.57;;;17.80;64.70;;;;;;6245305;28;20424;-75
2023/10/02 08:57:43;;;;;;;10.85;5.07;;;17.90;65.50;;;;;;6224150;28;20053;-74
2023/10/02 09:10:57;;;;;;;11.80;5.43;;;18.20;63.10;;;;;;6200701;28;20058;-77
2023/10/02 09:14:12;;;;;;;10.88;4.95;;;18.40;62.00;;;;;;6220128;28;20099;-76
2023/10/02 09:17:17;;;;;;;15.43;6.53;;;18.50;62.00;;;;;;6211685;28;20058;-76
2023/10/02 09:20:36;;;;;;;12.75;5.60;;;18.70;61.10;;;;;;6244672;28;20072;-76
2023/10/02 09:23:49;;;;;;;14.20;5.25;;;18.80;60.70;;;;;;6196418;28;20058;-75
2023/10/02 09:26:55;;;;;;;10.15;4.80;;;19.00;60.10;;;;;;6207967;28;20204;-76
2023/10/02 09:30:15;;;;;;;9.48;4.22;;;19.10;55.30;;;;;;6192178;28;20046;-73
2023/10/02 09:33:23;;;;;;;8.23;4.07;;;19.40;59.40;;;;;;6219456;28;20061;-74
2023/10/02 09:36:52;;;;;;;7.30;3.65;;;19.70;52.10;;;;;;6196567;28;20054;-74
2023/10/02 09:40:16;;;;;;;;;;;19.90;49.20;;;;;;6220677;28;20147;-73
2023/10/02 09:43:22;;;;;;;6.78;3.28;;;20.20;41.90;;;;;;6230277;28;19934;-73
2023/10/02 09:46:29;;;;;;;9.27;3.72;;;20.60;49.00;;;;;;6243956;28;20053;-73
2023/10/02 09:49:31;;;;;;;7.78;3.50;;;20.70;47.30;;;;;;6195780;28;20054;-73
2023/10/02 09:52:34;;;;;;;6.20;3.13;;;20.70;47.20;;;;;;6242827;28;20057;-81
2023/10/02 09:55:40;;;;;;;9.65;3.20;;;20.80;46.30;;;;;;6220516;28;20049;-77
2023/10/02 09:58:48;;;;;;;7.13;3.67;;;21.00;46.00;;;;;;6223052;28;20054;-77
2023/10/02 10:01:54;;;;;;;6.47;3.60;;;21.10;36.00;;;;;;6244106;28;20053;-77
2023/10/02 10:05:01;;;;;;;10.15;3.50;;;21.20;37.20;;;;;;6210682;28;20056;-77
2023/10/02 10:11:14;;;;;;;10.30;3.75;;;21.50;36.50;;;;;;6219960;28;20481;-77
2023/10/02 10:14:35;;;;;;;7.50;3.50;;;21.70;34.90;;;;;;6229139;28;20049;-74
2023/10/02 10:17:49;;;;;;;6.88;3.13;;;21.70;33.30;;;;;;6204745;28;20058;-74
2023/10/02 10:20:55;;;;;;;6.45;3.58;;;21.60;33.40;;;;;;6195179;28;20089;-77
2023/10/02 10:24:10;;;;;;;7.88;3.20;;;21.30;34.80;;;;;;6219537;28;20073;-73
2023/10/02 10:27:13;;;;;;;10.90;3.65;;;21.40;38.20;;;;;;6209947;28;20050;-74
2023/10/02 10:30:15;;;;;;;14.75;3.83;;;21.80;31.80;;;;;;6234828;28;20437;-75
2023/10/02 10:33:17;;;;;;;7.10;3.60;;;21.80;32.40;;;;;;6194720;28;20058;-77
2023/10/02 10:36:18;;;;;;;7.78;3.50;;;21.80;36.00;;;;;;6243282;28;20056;-76
2023/10/02 10:39:30;;;;;;;6.68;3.58;;;22.20;32.30;;;;;;6218042;28;20054;-77
2023/10/02 10:42:42;;;;;;;6.53;3.75;;;22.50;29.10;;;;;;6198780;28;20049;-82
2023/10/02 10:45:48;;;;;;;7.53;3.55;;;22.50;31.00;;;;;;6244836;28;20049;-82
2023/10/02 10:48:53;;;;;;;6.38;3.42;;;22.50;30.40;;;;;;6196207;28;20058;-79
2023/10/02 10:51:56;;;;;;;7.00;3.70;;;22.60;24.00;;;;;;6243757;28;20138;-83
2023/10/02 10:54:58;;;;;;;7.38;3.90;;;22.70;28.00;;;;;;6231159;28;20054;-88
2023/10/02 10:58:03;;;;;;;6.40;3.30;;;22.70;29.20;;;;;;6206751;28;20049;-87
2023/10/02 11:01:16;;;;;;;7.18;3.42;;;22.80;24.20;;;;;;6241604;28;20072;-86
2023/10/02 11:04:18;;;;;;;8.52;4.00;;;22.70;22.10;;;;;;6217722;28;20400;-81
2023/10/02 11:07:26;;;;;;;7.43;3.53;;;22.60;25.90;;;;;;6195247;28;20529;-81
2023/10/02 11:10:28;;;;;;;7.38;3.45;;;22.60;27.50;;;;;;6228019;28;20421;-83
2023/10/02 11:13:30;;;;;;;5.30;3.08;;;22.50;23.20;;;;;;6227018;28;20061;-78
2023/10/02 11:16:32;;;;;;;9.10;4.05;;;22.50;24.50;;;;;;6218943;28;20497;-76
2023/10/02 11:19:43;;;;;;;7.43;3.33;;;22.50;26.30;;;;;;6241800;28;20053;-75
2023/10/02 11:22:48;;;;;;;6.60;3.60;;;22.50;25.70;;;;;;6194359;28;20061;-73
2023/10/02 11:25:50;;;;;;;9.65;3.92;;;22.20;25.60;;;;;;6210294;28;20064;-74
2023/10/02 11:28:53;;;;;;;8.10;3.25;;;22.00;29.90;;;;;;6219493;28;20160;-76
2023/10/02 11:31:54;;;;;;;5.78;3.33;;;22.00;30.50;;;;;;6222912;28;20112;-75
2023/10/02 11:34:59;;;;;;;7.68;3.85;;;22.00;28.60;;;;;;6247216;28;20046;-75
2023/10/02 11:38:01;;;;;;;7.82;3.85;;;21.90;29.40;;;;;;6223738;28;20537;-75
2023/10/02 11:41:04;;;;;;;7.68;3.97;;;21.60;29.20;;;;;;6246815;28;20053;-75
2023/10/02 11:44:06;;;;;;;8.85;4.40;;;21.50;31.20;;;;;;6237369;28;20140;-76
2023/10/02 11:47:12;;;;;;;8.13;4.18;;;21.50;31.50;;;;;;6221809;28;20061;-75
2023/10/02 11:50:15;;;;;;;17.77;4.63;;;21.60;30.30;;;;;;6247040;28;20054;-75
2023/10/02 11:53:18;;;;;;;12.15;4.47;;;21.80;29.60;;;;;;6223736;28;20188;-76
2023/10/02 11:56:20;;;;;;;8.13;3.95;;;22.00;32.00;;;;;;6247184;28;20060;-75
2023/10/02 11:59:22;;;;;;;11.45;4.35;;;22.10;28.80;;;;;;6217756;28;20068;-75
2023/10/02 12:02:25;;;;;;;10.18;4.22;;;22.30;29.30;;;;;;6247566;28;20053;-75
2023/10/02 12:05:30;;;;;;;10.45;4.45;;;22.30;26.90;;;;;;6222788;28;20083;-76
2023/10/02 12:08:33;;;;;;;9.02;4.45;;;22.30;28.00;;;;;;6247134;28;20279;-76
2023/10/02 12:11:35;;;;;;;10.05;4.15;;;22.40;28.70;;;;;;6222746;28;20112;-76
2023/10/02 12:14:39;;;;;;;7.53;4.30;;;22.40;25.90;;;;;;6246133;28;20083;-76
2023/10/02 12:17:41;;;;;;;10.68;4.53;;;22.40;28.60;;;;;;6222239;28;20573;-76
2023/10/02 12:20:43;;;;;;;9.52;3.90;;;22.50;24.60;;;;;;6244869;28;20065;-75
2023/10/02 12:23:44;;;;;;;10.90;3.80;;;22.80;26.00;;;;;;6222541;28;20053;-76
2023/10/02 12:26:46;;;;;;;6.43;3.60;;;23.00;19.10;;;;;;6246439;28;20053;-76
2023/10/02 12:29:48;;;;;;;7.57;3.75;;;23.30;19.40;;;;;;6215224;28;20057;-76
2023/10/02 12:32:51;;;;;;;7.75;4.30;;;24.00;16.50;;;;;;6246057;28;20080;-76
2023/10/02 12:35:54;;;;;;;7.88;3.83;;;24.90;13.30;;;;;;6221423;28;20107;-76
2023/10/02 12:38:57;;;;;;;6.82;3.78;;;24.60;9.80;;;;;;6246272;28;20501;-76
2023/10/02 12:41:59;;;;;;;13.57;4.55;;;24.30;7.90;;;;;;6222218;28;20342;-75
2023/10/02 12:45:01;;;;;;;6.10;3.40;;;24.20;12.60;;;;;;6242014;28;20064;-76
2023/10/02 12:48:06;;;;;;;5.90;3.50;;;24.00;10.40;;;;;;6222006;28;20057;-75
2023/10/02 12:51:07;;;;;;;5.30;2.80;;;23.80;13.20;;;;;;6244257;28;20057;-75
2023/10/02 12:54:09;;;;;;;7.40;2.85;;;23.60;13.30;;;;;;6220796;28;20081;-76
2023/10/02 12:57:11;;;;;;;6.53;2.80;;;23.30;14.90;;;;;;6245383;28;20424;-75
2023/10/02 13:00:17;;;;;;;6.35;2.75;;;23.10;13.10;;;;;;6224013;28;20064;-75
2023/10/02 13:03:20;;;;;;;5.18;2.47;;;22.80;15.20;;;;;;6196111;28;20081;-75
2023/10/02 13:06:22;;;;;;;3.97;2.20;;;22.50;18.50;;;;;;6244513;28;20057;-75
2023/10/02 13:09:27;;;;;;;10.52;2.80;;;22.40;18.90;;;;;;6221807;28;20482;-77
2023/10/02 13:12:29;;;;;;;5.07;2.72;;;22.30;19.90;;;;;;6236791;28;20064;-77
2023/10/02 13:15:32;;;;;;;5.90;2.80;;;22.40;19.20;;;;;;6220845;28;20050;-73
2023/10/02 13:18:34;;;;;;;5.72;2.60;;;22.40;19.80;;;;;;6196572;28;20410;-75
2023/10/02 13:21:36;;;;;;;5.85;3.10;;;22.20;20.10;;;;;;6244130;28;20068;-79
2023/10/02 13:24:39;;;;;;;6.25;3.00;;;22.00;20.90;;;;;;6220699;28;20050;-80
2023/10/02 13:27:40;;;;;;;5.75;2.80;;;21.90;23.30;;;;;;6236915;28;20156;-79
2023/10/02 13:30:42;;;;;;;6.20;2.83;;;21.90;22.10;;;;;;6220361;28;20057;-77
2023/10/02 13:33:51;;;;;;;5.25;3.00;;;22.00;22.60;;;;;;6212603;28;20502;-81
2023/10/02 13:36:53;;;;;;;;;;;21.90;25.20;;;;;;6211957;28;20112;-83
2023/10/02 13:39:55;;;;;;;4.40;2.47;;;21.80;27.70;;;;;;6259690;28;19924;-83
2023/10/02 13:42:57;;;;;;;5.85;2.90;;;21.80;28.50;;;;;;6220974;28;20065;-78
2023/10/02 13:45:59;;;;;;;9.75;3.17;;;21.80;26.70;;;;;;6244900;28;20057;-78
2023/10/02 13:49:01;;;;;;;5.68;2.97;;;21.70;28.60;;;;;;6220602;28;20053;-79
2023/10/02 13:52:03;;;;;;;5.78;2.90;;;21.60;29.50;;;;;;6242791;28;20548;-81
2023/10/02 13:55:19;;;;;;;7.22;3.50;;;21.80;30.50;;;;;;6243241;28;20049;-78
2023/10/02 13:58:22;;;;;;;6.65;3.55;;;21.80;29.60;;;;;;6203988;28;20058;-74
2023/10/02 14:01:27;;;;;;;7.68;3.38;;;21.80;27.00;;;;;;6219523;28;20417;-85
2023/10/02 14:04:29;;;;;;;6.05;3.30;;;21.70;28.90;;;;;;6243793;28;20561;-84
2023/10/02 14:07:30;;;;;;;6.78;3.65;;;21.70;31.10;;;;;;6219937;28;20073;-82
2023/10/02 14:10:32;;;;;;;8.27;3.55;;;21.70;29.90;;;;;;6219005;28;20103;-84
2023/10/02 14:13:34;;;;;;;7.78;3.55;;;21.50;32.00;;;;;;6216752;28;20057;-82
2023/10/02 14:16:35;;;;;;;16.27;5.05;;;21.50;32.80;;;;;;6219571;28;20064;-80
2023/10/02 14:19:38;;;;;;;11.27;4.78;;;21.40;33.70;;;;;;6252474;28;20121;-86
2023/10/02 14:22:56;;;;;;;;;;;21.30;35.30;;;;;;6201093;28;20077;-78
2023/10/02 14:25:59;;;;;;;16.58;4.50;;;21.30;36.70;;;;;;6242237;28;19936;-77
2023/10/02 14:29:02;;;;;;;11.68;4.60;;;21.40;35.00;;;;;;6225602;28;20053;-77
2023/10/02 14:32:04;;;;;;;10.10;4.32;;;21.40;36.30;;;;;;6219404;28;20406;-78
2023/10/02 14:35:07;;;;;;;12.75;5.20;;;21.40;34.30;;;;;;6242542;28;20053;-79
2023/10/02 14:38:13;;;;;;;11.60;5.47;;;21.30;36.20;;;;;;6219011;28;20137;-79
2023/10/02 14:41:15;;;;;;;10.18;4.25;;;21.40;36.30;;;;;;6243309;28;20543;-79
2023/10/02 14:44:17;;;;;;;14.43;4.93;;;21.50;35.60;;;;;;6215402;28;20049;-75
2023/10/02 14:47:19;;;;;;;10.90;4.68;;;21.70;34.40;;;;;;6242765;28;20520;-75
2023/10/02 14:50:20;;;;;;;12.40;4.55;;;21.60;34.00;;;;;;6218980;28;20054;-76
2023/10/02 14:53:22;;;;;;;9.95;4.30;;;21.60;34.40;;;;;;6242883;28;20057;-76
2023/10/02 14:56:24;;;;;;;12.10;4.57;;;21.60;33.70;;;;;;6219553;28;20124;-80
2023/10/02 14:59:29;;;;;;;11.10;4.70;;;21.60;35.10;;;;;;6235017;28;20501;-77
2023/10/02 15:02:32;;;;;;;10.23;4.93;;;21.60;33.80;;;;;;6243555;28;20075;-77
2023/10/02 15:05:34;;;;;;;9.10;4.38;;;21.80;33.50;;;;;;6256484;28;20054;-92
2023/10/02 15:08:36;;;;;;;9.95;4.85;;;21.90;32.00;;;;;;6232969;28;20177;-77
2023/10/02 15:11:37;;;;;;;9.50;4.50;;;22.00;31.10;;;;;;6240735;28;20045;-82
2023/10/02 15:14:39;;;;;;;10.93;4.68;;;21.80;32.80;;;;;;6231762;28;20108;-80
2023/10/02 15:17:41;;;;;;;12.57;4.97;;;21.60;33.40;;;;;;6242516;28;20137;-79
2023/10/02 15:20:43;;;;;;;14.90;4.55;;;21.50;35.10;;;;;;6218926;28;20049;-81
2023/10/02 15:23:45;;;;;;;50.63;5.68;;;21.40;36.40;;;;;;6218677;28;20509;-77
2023/10/02 15:26:46;;;;;;;60.97;8.02;;;21.30;36.20;;;;;;6194616;28;20060;-81
2023/10/02 15:29:49;;;;;;;8.68;4.32;;;21.40;36.40;;;;;;6231841;28;20381;-76
2023/10/02 15:32:52;;;;;;;14.25;5.13;;;21.50;36.40;;;;;;6217330;28;20049;-77
2023/10/02 15:35:57;;;;;;;11.77;5.00;;;21.60;34.80;;;;;;6218881;28;20077;-77
2023/10/02 15:39:02;;;;;;;11.75;5.00;;;21.80;34.20;;;;;;6233017;28;20054;-76
2023/10/02 15:42:05;;;;;;;10.85;5.18;;;21.80;33.50;;;;;;6218006;28;20050;-76
2023/10/02 15:45:14;;;;;;;11.57;4.82;;;21.80;35.30;;;;;;6210562;28;20509;-76
2023/10/02 15:48:16;;;;;;;11.00;4.57;;;21.50;36.40;;;;;;6194782;28;20057;-76
2023/10/02 15:51:18;;;;;;;8.55;4.57;;;21.50;36.50;;;;;;6242216;28;20132;-76
2023/10/02 15:54:20;;;;;;;10.25;4.88;;;21.30;37.90;;;;;;6219170;28;20057;-77
2023/10/02 15:57:22;;;;;;;11.93;4.53;;;21.10;37.70;;;;;;6241104;28;20053;-77
2023/10/02 16:00:24;;;;;;;9.73;4.22;;;21.00;41.00;;;;;;6223927;28;20065;-76
2023/10/02 16:03:26;;;;;;;9.10;4.40;;;20.90;41.40;;;;;;6218380;28;20049;-77
2023/10/02 16:06:28;;;;;;;11.40;5.00;;;20.80;44.50;;;;;;6242141;28;20057;-76
2023/10/02 16:09:30;;;;;;;12.57;5.20;;;20.80;45.80;;;;;;6218370;28;20093;-77
2023/10/02 16:12:33;;;;;;;11.18;5.50;;;20.60;45.20;;;;;;6244549;28;20142;-77
2023/10/02 16:15:35;;;;;;;11.38;5.45;;;20.50;47.20;;;;;;6218797;28;20486;-77
2023/10/02 16:18:37;;;;;;;13.93;5.40;;;20.50;46.70;;;;;;6198747;28;20788;-77
2023/10/02 16:21:38;;;;;;;11.52;5.38;;;20.50;48.30;;;;;;6245711;28;20053;-76
2023/10/02 16:24:41;;;;;;;10.98;5.63;;;20.50;48.00;;;;;;6246870;28;20061;-76
2023/10/02 16:27:43;;;;;;;9.27;4.53;;;20.40;49.40;;;;;;6202810;28;20055;-76